sensor_id;sensor_type;location;lat;lon;timestamp;pressure;altitude;pressure_sealevel;temperature
76381;BMP280;65202;52.520;10.528;2023-04-01T00:01:14;99025.53;;;10.90
76381;BMP280;65202;52.520;10.528;2023-04-01T00:03:43;99026.97;;;10.76
76381;BMP280;65202;52.520;10.528;2023-04-01T00:06:13;99027.13;;;10.88
76381;BMP280;65202;52.520;10.528;2023-04-01T00:08:42;99028.94;;;10.94
76381;BMP280;65202;52.520;10.528;2023-04-01T00:11:11;99028.03;;;10.92
76381;BMP280;65202;52.520;10.528;2023-04-01T00:13:39;99028.97;;;10.98
76381;BMP280;65202;52.520;10.528;2023-04-01T00:16:07;99038.16;;;10.48
76381;BMP280;65202;52.520;10.528;2023-04-01T00:18:46;99029.59;;;10.84
76381;BMP280;65202;52.520;10.528;2023-04-01T00:21:15;99028.31;;;10.58
76381;BMP280;65202;52.520;10.528;2023-04-01T00:23:43;99032.25;;;10.46
76381;BMP280;65202;52.520;10.528;2023-04-01T00:26:11;99026.44;;;10.47
76381;BMP280;65202;52.520;10.528;2023-04-01T00:28:40;99037.72;;;10.24
76381;BMP280;65202;52.520;10.528;2023-04-01T00:31:10;99037.03;;;10.32
76381;BMP280;65202;52.520;10.528;2023-04-01T00:33:39;99025.91;;;10.18
76381;BMP280;65202;52.520;10.528;2023-04-01T00:36:19;99035.19;;;10.24
76381;BMP280;65202;52.520;10.528;2023-04-01T00:38:49;99029.22;;;10.16
76381;BMP280;65202;52.520;10.528;2023-04-01T00:41:19;99022.69;;;10.24
76381;BMP280;65202;52.520;10.528;2023-04-01T00:43:50;99029.44;;;10.28
76381;BMP280;65202;52.520;10.528;2023-04-01T00:46:18;99022.88;;;10.33
76381;BMP280;65202;52.520;10.528;2023-04-01T00:48:50;99016.09;;;10.27
76381;BMP280;65202;52.520;10.528;2023-04-01T00:51:25;99010.91;;;10.64
76381;BMP280;65202;52.520;10.528;2023-04-01T00:53:58;99022.38;;;10.53
76381;BMP280;65202;52.520;10.528;2023-04-01T00:56:41;99011.66;;;10.59
76381;BMP280;65202;52.520;10.528;2023-04-01T00:59:19;99010.13;;;10.67
76381;BMP280;65202;52.520;10.528;2023-04-01T01:01:51;99020.22;;;10.72
76381;BMP280;65202;52.520;10.528;2023-04-01T01:15:56;99020.28;;;10.75
76381;BMP280;65202;52.520;10.528;2023-04-01T01:18:38;99020.13;;;10.67
76381;BMP280;65202;52.520;10.528;2023-04-01T01:21:21;99018.16;;;10.51
76381;BMP280;65202;52.520;10.528;2023-04-01T01:24:09;99013.38;;;10.63
76381;BMP280;65202;52.520;10.528;2023-04-01T01:26:48;99017.59;;;10.65
76381;BMP280;65202;52.520;10.528;2023-04-01T01:35:34;99017.81;;;10.30
76381;BMP280;65202;52.520;10.528;2023-04-01T01:38:11;99019.97;;;10.56
76381;BMP280;65202;52.520;10.528;2023-04-01T01:40:46;99019.06;;;10.53
76381;BMP280;65202;52.520;10.528;2023-04-01T01:43:21;99022.97;;;10.39
76381;BMP280;65202;52.520;10.528;2023-04-01T01:45:55;99020.13;;;10.67
76381;BMP280;65202;52.520;10.528;2023-04-01T01:48:27;99024.72;;;10.43
76381;BMP280;65202;52.520;10.528;2023-04-01T01:50:57;99018.03;;;10.42
76381;BMP280;65202;52.520;10.528;2023-04-01T01:53:26;99026.59;;;10.56
76381;BMP280;65202;52.520;10.528;2023-04-01T01:55:54;99031.13;;;10.29
76381;BMP280;65202;52.520;10.528;2023-04-01T01:58:27;99020.66;;;10.49
76381;BMP280;65202;52.520;10.528;2023-04-01T02:01:00;99025.81;;;10.60
76381;BMP280;65202;52.520;10.528;2023-04-01T02:03:35;99019.81;;;10.49
76381;BMP280;65202;52.520;10.528;2023-04-01T02:06:10;99030.47;;;10.39
76381;BMP280;65202;52.520;10.528;2023-04-01T02:08:47;99028.03;;;10.42
76381;BMP280;65202;52.520;10.528;2023-04-01T02:11:29;99031.41;;;10.44
76381;BMP280;65202;52.520;10.528;2023-04-01T02:14:13;99038.34;;;10.60
76381;BMP280;65202;52.520;10.528;2023-04-01T02:17:05;99037.00;;;10.31
76381;BMP280;65202;52.520;10.528;2023-04-01T02:19:40;99031.41;;;10.44
76381;BMP280;65202;52.520;10.528;2023-04-01T02:22:24;99032.97;;;10.39
76381;BMP280;65202;52.520;10.528;2023-04-01T02:25:04;99026.56;;;10.53
76381;BMP280;65202;52.520;10.528;2023-04-01T02:27:39;99029.69;;;10.40
76381;BMP280;65202;52.520;10.528;2023-04-01T02:30:11;99029.69;;;10.40
76381;BMP280;65202;52.520;10.528;2023-04-01T02:32:42;99043.41;;;10.18
76381;BMP280;65202;52.520;10.528;2023-04-01T02:35:15;99038.69;;;10.32
76381;BMP280;65202;52.520;10.528;2023-04-01T02:37:46;99045.66;;;10.04
76381;BMP280;65202;52.520;10.528;2023-04-01T02:40:19;99041.00;;;10.23
76381;BMP280;65202;52.520;10.528;2023-04-01T02:42:48;99044.19;;;10.14
76381;BMP280;65202;52.520;10.528;2023-04-01T02:45:16;99039.28;;;10.19
76381;BMP280;65202;52.520;10.528;2023-04-01T02:47:44;99033.13;;;10.46
76381;BMP280;65202;52.520;10.528;2023-04-01T02:50:11;99034.91;;;10.55
76381;BMP280;65202;52.520;10.528;2023-04-01T02:52:38;99039.75;;;10.44
76381;BMP280;65202;52.520;10.528;2023-04-01T02:55:06;99050.91;;;10.17
76381;BMP280;65202;52.520;10.528;2023-04-01T02:57:34;99048.50;;;10.23
76381;BMP280;65202;52.520;10.528;2023-04-01T03:00:02;99051.53;;;10.07
76381;BMP280;65202;52.520;10.528;2023-04-01T03:02:30;99056.06;;;10.26
76381;BMP280;65202;52.520;10.528;2023-04-01T03:04:58;99056.06;;;10.26
76381;BMP280;65202;52.520;10.528;2023-04-01T03:07:26;99056.63;;;10.10
76381;BMP280;65202;52.520;10.528;2023-04-01T03:09:53;99057.59;;;10.18
76381;BMP280;65202;52.520;10.528;2023-04-01T03:12:21;99057.84;;;10.31
76381;BMP280;65202;52.520;10.528;2023-04-01T03:14:49;99056.81;;;10.20
76381;BMP280;65202;52.520;10.528;2023-04-01T03:17:17;99054.50;;;10.31
76381;BMP280;65202;52.520;10.528;2023-04-01T03:19:45;99060.91;;;10.17
76381;BMP280;65202;52.520;10.528;2023-04-01T03:22:13;99063.25;;;10.09
76381;BMP280;65202;52.520;10.528;2023-04-01T03:24:42;99058.41;;;10.17
76381;BMP280;65202;52.520;10.528;2023-04-01T03:27:10;99058.84;;;9.98
76381;BMP280;65202;52.520;10.528;2023-04-01T03:29:37;99065.06;;;10.16
76381;BMP280;65202;52.520;10.528;2023-04-01T03:32:06;99059.72;;;9.99
76381;BMP280;65202;52.520;10.528;2023-04-01T03:34:33;99057.59;;;10.18
76381;BMP280;65202;52.520;10.528;2023-04-01T03:37:00;99062.28;;;10.03
76381;BMP280;65202;52.520;10.528;2023-04-01T03:39:28;99058.53;;;10.23
76381;BMP280;65202;52.520;10.528;2023-04-01T03:41:55;99063.22;;;10.08
76381;BMP280;65202;52.520;10.528;2023-04-01T03:44:22;99066.94;;;10.28
76381;BMP280;65202;52.520;10.528;2023-04-01T03:46:50;99056.13;;;10.29
76381;BMP280;65202;52.520;10.528;2023-04-01T03:49:17;99065.22;;;10.25
76381;BMP280;65202;52.520;10.528;2023-04-01T03:51:45;99062.53;;;10.13
76381;BMP280;65202;52.520;10.528;2023-04-01T03:54:14;99070.13;;;10.19
76381;BMP280;65202;52.520;10.528;2023-04-01T03:56:42;99069.41;;;10.25
76381;BMP280;65202;52.520;10.528;2023-04-01T03:59:09;99068.00;;;10.39
76381;BMP280;65202;52.520;10.528;2023-04-01T04:01:37;99068.53;;;10.24
76381;BMP280;65202;52.520;10.528;2023-04-01T04:04:05;99063.41;;;10.17
76381;BMP280;65202;52.520;10.528;2023-04-01T04:06:33;99073.53;;;10.24
76381;BMP280;65202;52.520;10.528;2023-04-01T04:09:01;99080.22;;;10.24
76381;BMP280;65202;52.520;10.528;2023-04-01T04:11:30;99075.75;;;10.09
76381;BMP280;65202;52.520;10.528;2023-04-01T04:13:59;99079.50;;;10.31
76381;BMP280;65202;52.520;10.528;2023-04-01T04:16:26;99082.28;;;10.03
76381;BMP280;65202;52.520;10.528;2023-04-01T04:18:54;99079.09;;;10.10
76381;BMP280;65202;52.520;10.528;2023-04-01T04:21:21;99082.59;;;10.18
76381;BMP280;65202;52.520;10.528;2023-04-01T04:23:49;99087.72;;;10.24
76381;BMP280;65202;52.520;10.528;2023-04-01T04:26:19;99078.31;;;10.12
76381;BMP280;65202;52.520;10.528;2023-04-01T04:28:47;99087.56;;;10.16
76381;BMP280;65202;52.520;10.528;2023-04-01T04:31:23;99090.13;;;10.19
76381;BMP280;65202;52.520;10.528;2023-04-01T04:33:52;99092.75;;;10.25
76381;BMP280;65202;52.520;10.528;2023-04-01T04:36:20;99090.31;;;9.89
76381;BMP280;65202;52.520;10.528;2023-04-01T04:38:48;99101.75;;;9.79
76381;BMP280;65202;52.520;10.528;2023-04-01T04:41:17;99098.59;;;9.86
76381;BMP280;65202;52.520;10.528;2023-04-01T04:43:53;99103.44;;;10.18
76381;BMP280;65202;52.520;10.528;2023-04-01T04:46:22;99095.16;;;9.81
76381;BMP280;65202;52.520;10.528;2023-04-01T04:48:49;99109.53;;;9.93
76381;BMP280;65202;52.520;10.528;2023-04-01T04:51:18;99103.94;;;9.66
76381;BMP280;65202;52.520;10.528;2023-04-01T04:53:48;99109.41;;;9.87
76381;BMP280;65202;52.520;10.528;2023-04-01T04:56:19;99109.88;;;10.06
76381;BMP280;65202;52.520;10.528;2023-04-01T04:58:48;99104.13;;;10.10
76381;BMP280;65202;52.520;10.528;2023-04-01T05:01:16;99115.19;;;9.84
76381;BMP280;65202;52.520;10.528;2023-04-01T05:03:44;99109.75;;;10.02
76381;BMP280;65202;52.520;10.528;2023-04-01T05:06:14;99109.91;;;10.09
76381;BMP280;65202;52.520;10.528;2023-04-01T05:08:43;99122.47;;;10.12
76381;BMP280;65202;52.520;10.528;2023-04-01T05:11:14;99120.50;;;9.96
76381;BMP280;65202;52.520;10.528;2023-04-01T05:13:43;99125.63;;;9.67
76381;BMP280;65202;52.520;10.528;2023-04-01T05:16:14;99125.25;;;9.87
76381;BMP280;65202;52.520;10.528;2023-04-01T05:18:43;99121.25;;;9.95
76381;BMP280;65202;52.520;10.528;2023-04-01T05:21:13;99129.38;;;9.85
76381;BMP280;65202;52.520;10.528;2023-04-01T05:23:41;99123.41;;;10.17
76381;BMP280;65202;52.520;10.528;2023-04-01T05:26:11;99133.19;;;10.06
76381;BMP280;65202;52.520;10.528;2023-04-01T05:28:40;99126.75;;;10.16
76381;BMP280;65202;52.520;10.528;2023-04-01T05:31:08;99130.81;;;10.11
76381;BMP280;65202;52.520;10.528;2023-04-01T05:33:36;99135.84;;;10.12
76381;BMP280;65202;52.520;10.528;2023-04-01T05:36:12;99131.31;;;9.97
76381;BMP280;65202;52.520;10.528;2023-04-01T05:38:41;99122.47;;;10.12
76381;BMP280;65202;52.520;10.528;2023-04-01T05:41:09;99135.53;;;9.99
76381;BMP280;65202;52.520;10.528;2023-04-01T05:43:37;99135.38;;;9.93
76381;BMP280;65202;52.520;10.528;2023-04-01T05:46:06;99137.16;;;9.97
76381;BMP280;65202;52.520;10.528;2023-04-01T05:48:34;99138.75;;;9.95
76381;BMP280;65202;52.520;10.528;2023-04-01T05:51:02;99130.03;;;10.13
76381;BMP280;65202;52.520;10.528;2023-04-01T05:53:31;99139.97;;;10.12
76381;BMP280;65202;52.520;10.528;2023-04-01T05:56:02;99137.41;;;10.09
76381;BMP280;65202;52.520;10.528;2023-04-01T05:58:30;99139.66;;;9.97
76381;BMP280;65202;52.520;10.528;2023-04-01T06:01:05;99144.28;;;10.19
76381;BMP280;65202;52.520;10.528;2023-04-01T06:03:41;99144.94;;;10.10
76381;BMP280;65202;52.520;10.528;2023-04-01T06:06:22;99141.00;;;10.20
76381;BMP280;65202;52.520;10.528;2023-04-01T06:08:52;99148.06;;;10.01
76381;BMP280;65202;52.520;10.528;2023-04-01T06:14:40;99147.91;;;10.33
76381;BMP280;65202;52.520;10.528;2023-04-01T06:17:53;99143.66;;;10.27
76381;BMP280;65202;52.520;10.528;2023-04-01T06:21:17;99156.63;;;10.11
76381;BMP280;65202;52.520;10.528;2023-04-01T06:26:59;99160.53;;;10.37
76381;BMP280;65202;52.520;10.528;2023-04-01T06:32:34;99165.59;;;10.42
76381;BMP280;65202;52.520;10.528;2023-04-01T06:38:46;99171.63;;;10.11
76381;BMP280;65202;52.520;10.528;2023-04-01T06:42:10;99167.91;;;10.33
76381;BMP280;65202;52.520;10.528;2023-04-01T06:44:33;99174.97;;;10.52
76381;BMP280;65202;52.520;10.528;2023-04-01T06:47:23;99178.28;;;10.51
76381;BMP280;65202;52.520;10.528;2023-04-01T06:53:05;99178.88;;;10.39
76381;BMP280;65202;52.520;10.528;2023-04-01T06:55:56;99185.75;;;10.48
76381;BMP280;65202;52.520;10.528;2023-04-01T06:58:40;99182.75;;;10.65
76381;BMP280;65202;52.520;10.528;2023-04-01T07:01:34;99180.28;;;10.67
76381;BMP280;65202;52.520;10.528;2023-04-01T07:04:13;99185.63;;;10.86
76381;BMP280;65202;52.520;10.528;2023-04-01T07:09:24;99183.84;;;10.79
76381;BMP280;65202;52.520;10.528;2023-04-01T07:11:58;99186.91;;;11.09
76381;BMP280;65202;52.520;10.528;2023-04-01T07:14:32;99192.19;;;10.79
76381;BMP280;65202;52.520;10.528;2023-04-01T07:17:16;99189.16;;;10.95
76381;BMP280;65202;52.520;10.528;2023-04-01T07:19:58;99191.28;;;10.76
76381;BMP280;65202;52.520;10.528;2023-04-01T07:22:43;99199.22;;;10.98
76381;BMP280;65202;52.520;10.528;2023-04-01T07:28:10;99198.56;;;11.08
76381;BMP280;65202;52.520;10.528;2023-04-01T07:36:48;99218.72;;;11.14
76381;BMP280;65202;52.520;10.528;2023-04-01T07:42:51;99210.00;;;11.40
76381;BMP280;65202;52.520;10.528;2023-04-01T07:45:42;99213.38;;;11.43
76381;BMP280;65202;52.520;10.528;2023-04-01T07:48:41;99220.81;;;11.39
76381;BMP280;65202;52.520;10.528;2023-04-01T07:51:40;99218.47;;;11.48
76381;BMP280;65202;52.520;10.528;2023-04-01T07:54:29;99222.31;;;11.28
76381;BMP280;65202;52.520;10.528;2023-04-01T07:57:12;99224.91;;;11.34
76381;BMP280;65202;52.520;10.528;2023-04-01T08:03:14;99223.88;;;11.69
76381;BMP280;65202;52.520;10.528;2023-04-01T08:05:55;99229.97;;;11.37
76381;BMP280;65202;52.520;10.528;2023-04-01T08:08:43;99230.84;;;11.88
76381;BMP280;65202;52.520;10.528;2023-04-01T08:12:02;99230.41;;;12.14
76381;BMP280;65202;52.520;10.528;2023-04-01T08:15:06;99234.56;;;12.13
76381;BMP280;65202;52.520;10.528;2023-04-01T08:17:45;99233.94;;;12.28
76381;BMP280;65202;52.520;10.528;2023-04-01T08:23:26;99237.50;;;12.45
76381;BMP280;65202;52.520;10.528;2023-04-01T08:26:00;99243.28;;;12.36
76381;BMP280;65202;52.520;10.528;2023-04-01T08:28:37;99242.69;;;12.57
76381;BMP280;65202;52.520;10.528;2023-04-01T08:31:35;99250.03;;;12.43
76381;BMP280;65202;52.520;10.528;2023-04-01T08:34:15;99253.66;;;12.66
76381;BMP280;65202;52.520;10.528;2023-04-01T08:36:51;99254.34;;;12.53
76381;BMP280;65202;52.520;10.528;2023-04-01T08:39:34;99250.34;;;12.67
76381;BMP280;65202;52.520;10.528;2023-04-01T08:45:48;99253.56;;;12.57
76381;BMP280;65202;52.520;10.528;2023-04-01T08:49:10;99250.97;;;12.51
76381;BMP280;65202;52.520;10.528;2023-04-01T08:52:44;99254.34;;;12.52
76381;BMP280;65202;52.520;10.528;2023-04-01T09:01:46;99264.41;;;12.53
76381;BMP280;65202;52.520;10.528;2023-04-01T09:04:53;99263.03;;;12.15
76381;BMP280;65202;52.520;10.528;2023-04-01T09:08:03;99263.38;;;12.39
76381;BMP280;65202;52.520;10.528;2023-04-01T09:14:05;99262.56;;;13.07
76381;BMP280;65202;52.520;10.528;2023-04-01T09:16:58;99260.06;;;13.08
76381;BMP280;65202;52.520;10.528;2023-04-01T09:23:02;99258.47;;;14.08
76381;BMP280;65202;52.520;10.528;2023-04-01T09:26:08;99267.59;;;13.95
76381;BMP280;65202;52.520;10.528;2023-04-01T09:35:22;99262.88;;;14.36
76381;BMP280;65202;52.520;10.528;2023-04-01T09:41:31;99269.59;;;14.41
76381;BMP280;65202;52.520;10.528;2023-04-01T09:44:06;99272.06;;;14.34
76381;BMP280;65202;52.520;10.528;2023-04-01T09:47:08;99278.44;;;13.87
76381;BMP280;65202;52.520;10.528;2023-04-01T09:50:05;99273.97;;;13.56
76381;BMP280;65202;52.520;10.528;2023-04-01T09:56:12;99290.94;;;12.97
76381;BMP280;65202;52.520;10.528;2023-04-01T09:59:07;99285.97;;;13.03
76381;BMP280;65202;52.520;10.528;2023-04-01T10:14:47;99299.38;;;13.05
76381;BMP280;65202;52.520;10.528;2023-04-01T10:27:04;99313.44;;;12.91
76381;BMP280;65202;52.520;10.528;2023-04-01T10:52:12;99329.16;;;12.78
76381;BMP280;65202;52.520;10.528;2023-04-01T11:01:12;99331.34;;;13.16
76381;BMP280;65202;52.520;10.528;2023-04-01T11:07:15;99339.44;;;12.91
76381;BMP280;65202;52.520;10.528;2023-04-01T11:13:17;99346.28;;;13.03
76381;BMP280;65202;52.520;10.528;2023-04-01T11:19:29;99352.91;;;12.98
76381;BMP280;65202;52.520;10.528;2023-04-01T11:22:24;99354.19;;;12.72
76381;BMP280;65202;52.520;10.528;2023-04-01T11:31:32;99384.50;;;12.29
76381;BMP280;65202;52.520;10.528;2023-04-01T11:34:48;99378.38;;;12.67
76381;BMP280;65202;52.520;10.528;2023-04-01T11:38:17;99375.66;;;12.52
76381;BMP280;65202;52.520;10.528;2023-04-01T11:41:12;99380.50;;;12.40
76381;BMP280;65202;52.520;10.528;2023-04-01T11:44:16;99386.00;;;12.20
76381;BMP280;65202;52.520;10.528;2023-04-01T11:53:01;99398.78;;;12.33
76381;BMP280;65202;52.520;10.528;2023-04-01T11:55:56;99400.84;;;12.05
76381;BMP280;65202;52.520;10.528;2023-04-01T12:04:49;99411.38;;;11.88
76381;BMP280;65202;52.520;10.528;2023-04-01T12:07:41;99423.16;;;11.92
76381;BMP280;65202;52.520;10.528;2023-04-01T12:13:22;99433.78;;;11.01
76381;BMP280;65202;52.520;10.528;2023-04-01T12:18:55;99445.69;;;11.11
76381;BMP280;65202;52.520;10.528;2023-04-01T12:21:38;99441.78;;;11.23
76381;BMP280;65202;52.520;10.528;2023-04-01T12:30:15;99454.41;;;10.89
76381;BMP280;65202;52.520;10.528;2023-04-01T12:39:05;99470.56;;;11.02
76381;BMP280;65202;52.520;10.528;2023-04-01T13:00:12;99499.88;;;10.72
76381;BMP280;65202;52.520;10.528;2023-04-01T13:09:24;99511.72;;;10.44
76381;BMP280;65202;52.520;10.528;2023-04-01T13:21:38;99527.09;;;10.59
76381;BMP280;65202;52.520;10.528;2023-04-01T13:24:31;99538.31;;;10.42
76381;BMP280;65202;52.520;10.528;2023-04-01T13:27:19;99539.22;;;10.44
76381;BMP280;65202;52.520;10.528;2023-04-01T13:30:26;99535.50;;;10.62
76381;BMP280;65202;52.520;10.528;2023-04-01T13:33:14;99537.00;;;10.56
76381;BMP280;65202;52.520;10.528;2023-04-01T13:36:56;99537.53;;;10.75
76381;BMP280;65202;52.520;10.528;2023-04-01T13:39:18;99551.94;;;10.20
76381;BMP280;65202;52.520;10.528;2023-04-01T13:44:47;99555.84;;;9.83
76381;BMP280;65202;52.520;10.528;2023-04-01T13:51:28;99566.72;;;9.84
76381;BMP280;65202;52.520;10.528;2023-04-01T13:56:48;99582.81;;;9.65
76381;BMP280;65202;52.520;10.528;2023-04-01T14:08:55;99596.84;;;9.34
76381;BMP280;65202;52.520;10.528;2023-04-01T14:23:49;99617.66;;;9.35
76381;BMP280;65202;52.520;10.528;2023-04-01T14:30:00;99625.63;;;9.49
76381;BMP280;65202;52.520;10.528;2023-04-01T14:36:01;99651.97;;;9.14
76381;BMP280;65202;52.520;10.528;2023-04-01T14:41:47;99656.25;;;9.18
76381;BMP280;65202;52.520;10.528;2023-04-01T14:45:02;99659.84;;;9.26
76381;BMP280;65202;52.520;10.528;2023-04-01T14:50:46;99675.63;;;9.00
76381;BMP280;65202;52.520;10.528;2023-04-01T14:53:29;99671.38;;;8.97
76381;BMP280;65202;52.520;10.528;2023-04-01T14:56:02;99673.38;;;9.07
76381;BMP280;65202;52.520;10.528;2023-04-01T14:58:49;99675.91;;;8.84
76381;BMP280;65202;52.520;10.528;2023-04-01T15:10:38;99707.31;;;8.56
76381;BMP280;65202;52.520;10.528;2023-04-01T15:19:21;99719.56;;;8.72
76381;BMP280;65202;52.520;10.528;2023-04-01T15:22:24;99729.31;;;8.89
76381;BMP280;65202;52.520;10.528;2023-04-01T15:25:05;99725.34;;;8.94
76381;BMP280;65202;52.520;10.528;2023-04-01T15:29:08;99738.78;;;8.74
76381;BMP280;65202;52.520;10.528;2023-04-01T15:31:42;99748.34;;;8.40
76381;BMP280;65202;52.520;10.528;2023-04-01T15:35:09;99743.22;;;8.15
76381;BMP280;65202;52.520;10.528;2023-04-01T15:40:44;99747.78;;;8.25
76381;BMP280;65202;52.520;10.528;2023-04-01T15:43:33;99765.81;;;8.18
76381;BMP280;65202;52.520;10.528;2023-04-01T15:52:05;99774.84;;;8.16
76381;BMP280;65202;52.520;10.528;2023-04-01T16:12:08;99814.44;;;7.89
76381;BMP280;65202;52.520;10.528;2023-04-01T16:21:19;99833.94;;;7.99
76381;BMP280;65202;52.520;10.528;2023-04-01T16:23:58;99841.63;;;7.84
76381;BMP280;65202;52.520;10.528;2023-04-01T16:26:36;99847.03;;;8.14
76381;BMP280;65202;52.520;10.528;2023-04-01T16:32:22;99861.25;;;7.77
76381;BMP280;65202;52.520;10.528;2023-04-01T16:38:09;99868.13;;;7.43
76381;BMP280;65202;52.520;10.528;2023-04-01T16:41:07;99879.78;;;7.63
76381;BMP280;65202;52.520;10.528;2023-04-01T16:54:28;99920.63;;;7.29
76381;BMP280;65202;52.520;10.528;2023-04-01T16:59:47;99924.50;;;7.41
76381;BMP280;65202;52.520;10.528;2023-04-01T17:02:28;99947.66;;;7.21
76381;BMP280;65202;52.520;10.528;2023-04-01T17:05:09;99939.31;;;7.57
76381;BMP280;65202;52.520;10.528;2023-04-01T17:07:43;99948.22;;;7.33
76381;BMP280;65202;52.520;10.528;2023-04-01T17:10:43;99946.91;;;7.41
76381;BMP280;65202;52.520;10.528;2023-04-01T17:16:51;99977.25;;;7.15
76381;BMP280;65202;52.520;10.528;2023-04-01T17:19:46;99976.59;;;7.19
76381;BMP280;65202;52.520;10.528;2023-04-01T17:28:19;99992.34;;;7.01
76381;BMP280;65202;52.520;10.528;2023-04-01T17:31:26;100001.97;;;6.93
76381;BMP280;65202;52.520;10.528;2023-04-01T17:37:44;100016.50;;;6.69
76381;BMP280;65202;52.520;10.528;2023-04-01T17:40:33;100027.41;;;6.71
76381;BMP280;65202;52.520;10.528;2023-04-01T17:46:27;100024.66;;;6.99
76381;BMP280;65202;52.520;10.528;2023-04-01T17:49:42;100031.66;;;6.90
76381;BMP280;65202;52.520;10.528;2023-04-01T17:52:25;100047.31;;;6.71
76381;BMP280;65202;52.520;10.528;2023-04-01T17:55:24;100050.25;;;6.64
76381;BMP280;65202;52.520;10.528;2023-04-01T17:58:11;100049.84;;;6.72
76381;BMP280;65202;52.520;10.528;2023-04-01T18:01:17;100059.03;;;6.73
76381;BMP280;65202;52.520;10.528;2023-04-01T18:04:37;100069.97;;;6.77
76381;BMP280;65202;52.520;10.528;2023-04-01T18:07:40;100076.16;;;6.51
76381;BMP280;65202;52.520;10.528;2023-04-01T18:10:25;100082.91;;;6.70
76381;BMP280;65202;52.520;10.528;2023-04-01T18:13:33;100099.03;;;6.28
76381;BMP280;65202;52.520;10.528;2023-04-01T18:22:20;100108.97;;;6.78
76381;BMP280;65202;52.520;10.528;2023-04-01T18:31:11;100121.13;;;6.72
76381;BMP280;65202;52.520;10.528;2023-04-01T18:36:59;100142.47;;;6.35
76381;BMP280;65202;52.520;10.528;2023-04-01T18:39:41;100147.19;;;6.46
76381;BMP280;65202;52.520;10.528;2023-04-01T18:42:41;100152.09;;;6.45
76381;BMP280;65202;52.520;10.528;2023-04-01T18:45:20;100165.00;;;6.22
76381;BMP280;65202;52.520;10.528;2023-04-01T18:48:33;100169.78;;;6.19
76381;BMP280;65202;52.520;10.528;2023-04-01T18:51:25;100179.59;;;6.48
76381;BMP280;65202;52.520;10.528;2023-04-01T18:54:32;100185.94;;;6.11
76381;BMP280;65202;52.520;10.528;2023-04-01T18:57:15;100181.53;;;6.37
76381;BMP280;65202;52.520;10.528;2023-04-01T19:00:25;100194.66;;;6.35
76381;BMP280;65202;52.520;10.528;2023-04-01T19:03:23;100202.72;;;6.15
76381;BMP280;65202;52.520;10.528;2023-04-01T19:06:06;100217.63;;;5.85
76381;BMP280;65202;52.520;10.528;2023-04-01T19:08:44;100212.38;;;5.95
76381;BMP280;65202;52.520;10.528;2023-04-01T19:11:38;100219.28;;;5.84
76381;BMP280;65202;52.520;10.528;2023-04-01T19:14:35;100220.88;;;6.14
76381;BMP280;65202;52.520;10.528;2023-04-01T19:17:37;100235.50;;;5.94
76381;BMP280;65202;52.520;10.528;2023-04-01T19:20:51;100243.53;;;6.04
76381;BMP280;65202;52.520;10.528;2023-04-01T19:27:14;100251.47;;;5.83
76381;BMP280;65202;52.520;10.528;2023-04-01T19:33:37;100267.53;;;5.75
76381;BMP280;65202;52.520;10.528;2023-04-01T19:42:51;100273.72;;;5.81
76381;BMP280;65202;52.520;10.528;2023-04-01T19:45:52;100290.75;;;5.47
76381;BMP280;65202;52.520;10.528;2023-04-01T19:48:36;100291.72;;;5.77
76381;BMP280;65202;52.520;10.528;2023-04-01T19:57:14;100315.31;;;5.57
76381;BMP280;65202;52.520;10.528;2023-04-01T20:00:23;100317.72;;;5.41
76381;BMP280;65202;52.520;10.528;2023-04-01T20:03:05;100330.91;;;5.54
76381;BMP280;65202;52.520;10.528;2023-04-01T20:05:56;100337.41;;;5.38
76381;BMP280;65202;52.520;10.528;2023-04-01T20:08:54;100340.38;;;5.32
76381;BMP280;65202;52.520;10.528;2023-04-01T20:17:07;100365.97;;;5.17
76381;BMP280;65202;52.520;10.528;2023-04-01T20:25:18;100391.69;;;5.19
76381;BMP280;65202;52.520;10.528;2023-04-01T20:39:10;100423.78;;;5.16
76381;BMP280;65202;52.520;10.528;2023-04-01T20:42:17;100416.56;;;5.06
76381;BMP280;65202;52.520;10.528;2023-04-01T20:45:10;100423.97;;;5.19
76381;BMP280;65202;52.520;10.528;2023-04-01T20:50:59;100432.78;;;5.01
76381;BMP280;65202;52.520;10.528;2023-04-01T21:09:10;100470.41;;;4.68
76381;BMP280;65202;52.520;10.528;2023-04-01T21:12:15;100474.78;;;4.85
76381;BMP280;65202;52.520;10.528;2023-04-01T21:18:21;100484.41;;;4.68
76381;BMP280;65202;52.520;10.528;2023-04-01T21:24:28;100488.22;;;4.63
76381;BMP280;65202;52.520;10.528;2023-04-01T21:33:06;100507.41;;;4.52
76381;BMP280;65202;52.520;10.528;2023-04-01T21:42:17;100532.97;;;4.90
76381;BMP280;65202;52.520;10.528;2023-04-01T21:51:43;100540.53;;;4.41
76381;BMP280;65202;52.520;10.528;2023-04-01T21:57:45;100557.91;;;4.41
76381;BMP280;65202;52.520;10.528;2023-04-01T22:00:24;100559.28;;;4.25
76381;BMP280;65202;52.520;10.528;2023-04-01T22:08:47;100577.06;;;4.07
76381;BMP280;65202;52.520;10.528;2023-04-01T22:11:44;100570.63;;;3.97
76381;BMP280;65202;52.520;10.528;2023-04-01T22:14:31;100572.91;;;4.19
76381;BMP280;65202;52.520;10.528;2023-04-01T22:17:16;100581.19;;;3.95
76381;BMP280;65202;52.520;10.528;2023-04-01T22:25:54;100591.34;;;4.35
76381;BMP280;65202;52.520;10.528;2023-04-01T22:28:47;100599.28;;;3.94
76381;BMP280;65202;52.520;10.528;2023-04-01T22:31:38;100613.25;;;4.29
76381;BMP280;65202;52.520;10.528;2023-04-01T22:34:21;100616.13;;;4.11
76381;BMP280;65202;52.520;10.528;2023-04-01T22:37:13;100619.44;;;3.87
76381;BMP280;65202;52.520;10.528;2023-04-01T22:40:32;100628.94;;;4.17
76381;BMP280;65202;52.520;10.528;2023-04-01T22:43:10;100626.47;;;4.05
76381;BMP280;65202;52.520;10.528;2023-04-01T22:51:48;100647.25;;;3.83
76381;BMP280;65202;52.520;10.528;2023-04-01T22:54:30;100642.91;;;3.92
76381;BMP280;65202;52.520;10.528;2023-04-01T22:57:05;100657.22;;;3.96
76381;BMP280;65202;52.520;10.528;2023-04-01T22:59:45;100662.59;;;4.02
76381;BMP280;65202;52.520;10.528;2023-04-01T23:02:19;100657.25;;;3.84
76381;BMP280;65202;52.520;10.528;2023-04-01T23:04:52;100675.00;;;4.26
76381;BMP280;65202;52.520;10.528;2023-04-01T23:07:43;100675.34;;;3.72